Time;durP1;ratioP1;P1;durP2;ratioP2;P2;SDS_P1;SDS_P2;PMS_P1;PMS_P2;Temp;Humidity;BMP_temperature;BMP_pressure;BME280_temperature;BME280_humidity;BME280_pressure;Samples;Min_cycle;Max_cycle;Signal;HPM_P1;HPM_P2
2022/11/08 05:07:54;;;;;;;20.63;10.32;;;11.40;99.90;;;;;;4985300;28;20054;-93
2022/11/08 05:25:31;;;;;;;19.88;11.02;;;11.40;99.90;;;;;;5034054;28;20030;-91
2022/11/08 05:27:58;;;;;;;18.20;10.38;;;11.40;99.90;;;;;;5002893;28;20025;-93
2022/11/08 05:30:24;;;;;;;20.20;10.75;;;11.40;99.90;;;;;;5012206;28;20510;-94
2022/11/08 05:32:51;;;;;;;18.42;10.80;;;11.40;99.90;;;;;;5003890;28;20494;-93
2022/11/08 05:35:20;;;;;;;22.45;10.55;;;11.40;99.90;;;;;;5007060;28;20082;-94
2022/11/08 05:37:47;;;;;;;16.25;10.10;;;11.50;99.90;;;;;;5010835;28;20047;-94
2022/11/08 05:40:16;;;;;;;16.33;9.68;;;11.50;99.90;;;;;;5007051;28;20490;-93
2022/11/08 05:42:46;;;;;;;23.38;10.50;;;11.50;99.90;;;;;;5036948;28;20014;-93
2022/11/08 05:45:20;;;;;;;20.10;10.30;;;11.50;99.90;;;;;;4999946;28;20027;-94
2022/11/08 05:47:48;;;;;;;18.13;10.43;;;11.50;99.90;;;;;;4995374;28;20042;-94
2022/11/08 05:50:15;;;;;;;15.75;9.55;;;11.60;99.90;;;;;;4992224;28;20045;-94
2022/11/08 05:52:51;;;;;;;17.73;10.20;;;11.60;99.90;;;;;;4980493;28;20098;-94
2022/11/08 06:24:03;;;;;;;15.57;8.10;;;12.90;99.90;;;;;;5486910;22;20067;-93
2022/11/08 06:35:35;;;;;;;15.18;12.98;;;14.20;99.90;;;;;;5081636;22;20053;-95
2022/11/08 06:38:14;;;;;;;15.00;13.52;;;14.40;99.90;;;;;;5028263;28;20037;-94
2022/11/08 06:41:32;;;;;;;15.40;14.00;;;14.70;99.90;;;;;;5029363;28;20056;-93
2022/11/08 06:45:14;;;;;;;17.38;15.48;;;14.90;99.90;;;;;;4995631;28;20066;-93
2022/11/08 06:48:56;;;;;;;19.08;15.77;;;15.20;99.90;;;;;;4985766;28;20059;-94
2022/11/08 06:59:30;;;;;;;20.33;18.52;;;15.50;99.90;;;;;;4849492;29;20110;-94
2022/11/08 07:02:00;;;;;;;28.00;20.63;;;15.60;99.90;;;;;;4814036;29;20450;-94
2022/11/08 07:04:36;;;;;;;25.52;22.15;;;15.80;99.90;;;;;;4823735;29;20046;-94
2022/11/08 07:07:03;;;;;;;30.02;22.50;;;16.30;99.90;;;;;;4815136;29;20039;-94
2022/11/08 07:09:36;;;;;;;46.13;26.73;;;16.50;99.90;;;;;;4811753;29;20065;-94
2022/11/08 07:12:13;;;;;;;44.05;27.17;;;16.80;99.90;;;;;;4817115;29;20051;-94
2022/11/08 07:14:42;;;;;;;37.67;24.77;;;16.90;99.90;;;;;;4816550;29;20038;-93
2022/11/08 07:17:16;;;;;;;36.17;24.20;;;16.90;99.90;;;;;;4816274;29;20042;-93
2022/11/08 07:19:48;;;;;;;27.35;22.63;;;17.10;99.90;;;;;;4821661;29;20086;-92
2022/11/08 07:22:34;;;;;;;27.17;20.80;;;17.20;99.90;;;;;;4837710;29;20042;-93
2022/11/08 07:34:08;;;;;;;20.73;18.33;;;17.60;99.90;;;;;;5208266;22;20140;31
2022/11/08 07:40:39;;;;;;;26.67;19.20;;;17.90;99.90;;;;;;5088492;22;20079;-93
2022/11/08 07:43:06;;;;;;;20.90;18.67;;;18.10;99.90;;;;;;5029697;28;20044;-94
2022/11/08 07:45:54;;;;;;;20.25;17.65;;;18.40;99.90;;;;;;5034311;23;20050;-92
2022/11/08 07:48:40;;;;;;;16.88;15.38;;;18.70;99.90;;;;;;5000454;28;20026;-91
2022/11/08 07:51:07;;;;;;;15.50;14.50;;;18.60;99.90;;;;;;5000402;28;20072;-91
2022/11/08 07:53:35;;;;;;;15.68;14.38;;;18.60;99.90;;;;;;5016729;28;20028;-92
2022/11/08 07:56:02;;;;;;;14.55;13.27;;;18.40;99.90;;;;;;5017123;28;20112;-87
2022/11/08 07:58:29;;;;;;;13.77;12.57;;;18.30;99.90;;;;;;5016697;28;20108;-88
2022/11/08 08:01:04;;;;;;;11.85;10.82;;;18.00;99.90;;;;;;5016506;28;20064;-87
2022/11/08 08:03:31;;;;;;;10.07;9.32;;;17.80;99.90;;;;;;5016882;28;20080;-88
2022/11/08 08:05:58;;;;;;;10.48;9.48;;;17.80;99.90;;;;;;5016538;28;20033;-88
2022/11/08 08:08:24;;;;;;;9.85;8.90;;;17.90;99.90;;;;;;5016328;28;20026;-89
2022/11/08 08:10:55;;;;;;;9.57;8.60;;;17.80;99.90;;;;;;5033082;28;20038;-87
2022/11/08 08:13:21;;;;;;;9.80;8.88;;;17.80;99.90;;;;;;5016962;28;20122;-87
2022/11/08 08:15:48;;;;;;;9.90;8.98;;;17.80;99.90;;;;;;5016258;28;20402;-89
2022/11/08 08:18:16;;;;;;;10.00;9.23;;;17.80;99.90;;;;;;5017142;28;20511;-89
2022/11/08 08:20:45;;;;;;;11.48;9.00;;;17.80;99.90;;;;;;5017097;28;20109;-89
2022/11/08 08:23:12;;;;;;;10.18;8.88;;;17.90;99.90;;;;;;5040644;28;20029;-88
2022/11/08 08:25:40;;;;;;;9.85;8.10;;;18.10;99.90;;;;;;5027076;28;20073;-88
2022/11/08 08:28:08;;;;;;;10.27;9.15;;;18.30;99.90;;;;;;5016121;28;20064;-87
2022/11/08 08:30:35;;;;;;;11.73;9.02;;;18.50;99.90;;;;;;5015564;28;20041;-87
2022/11/08 08:33:10;;;;;;;9.77;8.75;;;18.40;99.90;;;;;;5016296;28;20394;-87
2022/11/08 08:35:42;;;;;;;10.20;9.10;;;18.40;99.90;;;;;;5015707;28;20542;-87
2022/11/08 08:38:16;;;;;;;10.25;9.45;;;18.60;99.90;;;;;;5015950;28;20026;-89
2022/11/08 08:40:43;;;;;;;10.63;9.10;;;18.50;99.90;;;;;;5015767;28;20048;-88
2022/11/08 08:43:09;;;;;;;10.60;9.60;;;18.40;99.90;;;;;;5015933;28;20030;-87
2022/11/08 08:45:36;;;;;;;9.00;8.10;;;18.30;99.90;;;;;;5015490;28;20124;-88
2022/11/08 08:48:03;;;;;;;12.63;8.70;;;18.40;99.90;;;;;;4999423;28;20033;-87
2022/11/08 08:50:40;;;;;;;11.57;8.73;;;18.40;99.90;;;;;;5032229;28;20129;-89
2022/11/08 08:53:07;;;;;;;10.80;9.85;;;18.60;99.90;;;;;;5032325;28;20097;-88
2022/11/08 08:55:36;;;;;;;10.32;9.30;;;18.60;99.90;;;;;;5031866;28;20454;-87
2022/11/08 08:58:03;;;;;;;11.10;10.00;;;18.60;99.90;;;;;;5033730;28;20018;-90
2022/11/08 09:00:31;;;;;;;11.18;9.95;;;18.70;99.90;;;;;;4999213;28;20030;-88
2022/11/08 09:03:16;;;;;;;11.27;10.15;;;18.90;99.90;;;;;;5031955;28;20108;-90
2022/11/08 09:05:45;;;;;;;10.90;10.00;;;18.80;99.90;;;;;;4999290;28;20036;-88
2022/11/08 09:08:21;;;;;;;11.13;10.07;;;18.70;99.90;;;;;;4999562;28;20026;-88
2022/11/08 09:10:59;;;;;;;10.70;9.88;;;18.60;99.90;;;;;;4998875;28;20100;-88
2022/11/08 09:13:26;;;;;;;11.23;10.27;;;18.80;99.90;;;;;;5031736;28;20021;-89
2022/11/08 09:15:54;;;;;;;11.82;10.63;;;18.90;99.90;;;;;;4998787;28;20034;-88
2022/11/08 09:18:21;;;;;;;11.60;10.70;;;18.90;99.90;;;;;;4998894;28;20030;-89
2022/11/08 09:21:03;;;;;;;11.05;10.05;;;18.80;99.90;;;;;;4998637;28;20064;-88
2022/11/08 09:23:32;;;;;;;12.00;11.00;;;18.80;99.90;;;;;;4998712;28;20084;-89
2022/11/08 09:26:02;;;;;;;11.27;10.55;;;19.10;99.90;;;;;;4998771;28;20022;-90
2022/11/08 09:28:32;;;;;;;13.25;11.90;;;19.20;99.90;;;;;;4998635;28;20040;-88
2022/11/08 09:31:06;;;;;;;12.57;11.65;;;19.30;99.90;;;;;;4998300;28;20037;-88
2022/11/08 09:33:33;;;;;;;11.80;11.05;;;18.90;99.90;;;;;;4998591;28;20026;-88
2022/11/08 09:36:04;;;;;;;12.20;10.70;;;18.80;99.90;;;;;;4999196;28;20061;-90
2022/11/08 09:38:31;;;;;;;12.40;11.25;;;18.70;99.90;;;;;;5013095;28;20042;-93
2022/11/08 09:41:23;;;;;;;12.13;11.32;;;19.00;99.90;;;;;;4997719;28;20034;-92
2022/11/08 09:44:01;;;;;;;13.10;11.85;;;19.10;99.90;;;;;;5032599;28;20038;-94
2022/11/08 09:46:58;;;;;;;13.38;12.20;;;19.20;99.90;;;;;;4998142;28;20069;-92
2022/11/08 09:49:46;;;;;;;13.23;11.93;;;19.10;99.90;;;;;;5014510;28;20372;-92
2022/11/08 09:52:44;;;;;;;13.75;12.77;;;19.30;99.90;;;;;;5027066;28;20025;-93
2022/11/08 09:55:32;;;;;;;12.77;12.02;;;19.20;99.90;;;;;;5027302;28;20045;-94
2022/11/08 09:58:14;;;;;;;12.88;11.98;;;18.90;99.90;;;;;;4998231;28;20420;-92
2022/11/08 10:00:41;;;;;;;12.60;11.70;;;18.90;99.90;;;;;;5014514;28;20057;-92
2022/11/08 10:03:23;;;;;;;13.20;12.13;;;19.10;99.90;;;;;;5014686;28;20026;-91
2022/11/08 10:06:21;;;;;;;14.27;13.23;;;19.60;99.90;;;;;;5014236;28;20033;-92
2022/11/08 10:09:21;;;;;;;14.43;13.30;;;19.90;99.90;;;;;;4997653;28;20097;-93
2022/11/08 10:12:19;;;;;;;13.63;12.50;;;19.60;99.90;;;;;;4997927;28;20038;-94
2022/11/08 10:15:43;;;;;;;13.50;12.57;;;19.30;99.90;;;;;;4997913;28;20026;-93
2022/11/08 10:18:33;;;;;;;13.20;11.70;;;18.90;99.90;;;;;;5002720;28;20042;-93
2022/11/08 10:22:06;;;;;;;13.25;12.25;;;19.00;99.90;;;;;;5029013;28;20097;-93
2022/11/08 10:25:28;;;;;;;13.18;12.23;;;19.00;99.90;;;;;;5017115;28;20041;-93
2022/11/08 10:27:58;;;;;;;19.48;17.67;;;19.30;99.90;;;;;;4989856;28;20034;-92
2022/11/08 10:30:37;;;;;;;13.63;12.63;;;19.60;99.90;;;;;;4993136;28;20092;-92
2022/11/08 10:33:27;;;;;;;14.45;13.35;;;20.00;99.90;;;;;;4993508;28;20034;-93
2022/11/08 10:36:21;;;;;;;14.90;13.85;;;20.10;99.90;;;;;;4994015;28;20026;-92
2022/11/08 10:38:56;;;;;;;13.50;12.70;;;20.00;99.90;;;;;;4994176;28;20126;-93
2022/11/08 10:41:55;;;;;;;13.63;12.70;;;19.70;99.90;;;;;;4993804;28;20033;-93
2022/11/08 10:44:26;;;;;;;13.27;12.05;;;19.30;99.90;;;;;;4993735;28;20050;-91
2022/11/08 10:47:24;;;;;;;12.55;11.55;;;19.10;99.90;;;;;;4994757;28;20053;-93
2022/11/08 10:49:54;;;;;;;12.73;11.57;;;18.90;99.90;;;;;;4937161;29;20100;-93
2022/11/08 10:52:53;;;;;;;12.65;11.73;;;18.80;99.90;;;;;;4922148;29;20050;-93
2022/11/08 10:55:50;;;;;;;12.98;11.85;;;18.70;99.90;;;;;;4905468;29;20044;-93
2022/11/08 10:58:44;;;;;;;13.23;12.00;;;18.60;99.90;;;;;;4896968;29;20072;-92
2022/11/08 11:01:32;;;;;;;12.52;11.30;;;18.60;99.90;;;;;;4893196;29;20033;-93
2022/11/08 11:04:26;;;;;;;11.73;10.52;;;18.60;99.90;;;;;;4900611;29;20128;-93
2022/11/08 11:06:56;;;;;;;11.68;10.65;;;18.70;99.90;;;;;;4882944;29;20033;-93
2022/11/08 11:09:31;;;;;;;12.60;11.70;;;18.80;99.90;;;;;;4883783;29;20100;-93
2022/11/08 11:12:08;;;;;;;13.27;12.27;;;18.90;99.90;;;;;;4868395;29;20538;-93
2022/11/08 11:14:42;;;;;;;14.02;12.93;;;18.90;99.90;;;;;;4883614;29;20152;-93
2022/11/08 11:17:18;;;;;;;13.63;12.70;;;18.90;99.90;;;;;;4885639;29;20533;-93
2022/11/08 11:20:04;;;;;;;13.65;12.75;;;19.00;99.90;;;;;;4882930;29;20044;-94
2022/11/08 11:22:33;;;;;;;13.82;12.88;;;19.50;99.90;;;;;;4883185;29;20119;-93
2022/11/08 11:25:17;;;;;;;14.75;13.70;;;19.80;99.90;;;;;;4882882;29;20033;-93
2022/11/08 11:28:29;;;;;;;;;;;;;;;;;;;;;
2022/11/08 11:31:04;;;;;;;14.85;13.80;;;20.20;99.90;;;;;;4917590;29;20134;-93
2022/11/08 11:33:32;;;;;;;15.82;14.77;;;20.30;99.90;;;;;;4920114;29;20039;-93
2022/11/08 11:36:19;;;;;;;15.77;14.57;;;20.30;99.90;;;;;;4905416;29;20032;-93
2022/11/08 11:42:56;;;;;;;14.98;13.98;;;19.60;99.90;;;;;;4887190;29;20056;-93
2022/11/08 11:50:19;;;;;;;15.70;14.70;;;19.10;99.90;;;;;;4885139;29;20100;-93
2022/11/08 11:53:03;;;;;;;16.13;15.05;;;19.40;99.90;;;;;;4883159;29;20452;-93
2022/11/08 11:55:59;;;;;;;14.27;13.27;;;19.50;99.90;;;;;;4889685;29;20062;-95
2022/11/08 12:02:32;;;;;;;12.73;11.60;;;19.40;99.90;;;;;;4870077;29;20088;-93
2022/11/08 12:06:00;;;;;;;11.38;10.68;;;19.50;99.90;;;;;;4857548;29;20053;-93
2022/11/08 12:12:23;;;;;;;12.00;11.00;;;19.30;99.90;;;;;;4904819;29;20062;-93
2022/11/08 12:15:21;;;;;;;12.02;11.10;;;19.10;99.90;;;;;;4880064;29;20077;-93
2022/11/08 12:18:13;;;;;;;11.43;10.65;;;18.90;99.90;;;;;;4870057;29;20045;-93
2022/11/08 12:21:16;;;;;;;12.02;11.32;;;18.80;99.90;;;;;;4885256;29;20041;-94
2022/11/08 12:24:25;;;;;;;12.13;11.23;;;18.70;99.90;;;;;;4885358;29;20025;-94
2022/11/08 12:30:58;;;;;;;11.68;10.82;;;19.30;99.90;;;;;;4964564;29;20047;-95
2022/11/08 12:34:09;;;;;;;12.40;11.27;;;19.60;99.90;;;;;;4940452;29;20125;-95
2022/11/08 12:58:10;;;;;;;;;;;;;;;;;;;;;
2022/11/08 15:13:29;;;;;;;10.32;8.82;;;17.50;99.90;;;;;;5030993;28;20491;-93
2022/11/08 15:19:20;;;;;;;8.90;8.07;;;17.20;99.90;;;;;;5003433;28;20034;-93
2022/11/08 15:41:16;;;;;;;12.88;7.32;;;16.80;99.90;;;;;;5000687;28;20085;-93
2022/11/08 15:43:43;;;;;;;;;;;16.70;99.90;;;;;;4969490;28;20042;-94
2022/11/08 15:46:32;;;;;;;7.63;6.53;;;16.70;99.90;;;;;;4982007;28;19906;-92
2022/11/08 15:49:01;;;;;;;6.80;6.13;;;16.60;99.90;;;;;;4962313;28;20475;-94
2022/11/08 15:51:28;;;;;;;7.60;6.88;;;16.60;99.90;;;;;;4962544;28;20054;-93
2022/11/08 15:53:55;;;;;;;12.30;6.95;;;16.60;99.90;;;;;;4963771;28;20058;-94
2022/11/08 15:56:47;;;;;;;10.52;7.97;;;16.50;99.90;;;;;;4964561;28;20041;-94
2022/11/08 15:59:18;;;;;;;10.13;7.35;;;16.50;99.90;;;;;;4962610;28;20110;-93
2022/11/08 16:01:59;;;;;;;10.40;7.45;;;16.40;99.90;;;;;;4961794;28;20078;-93
2022/11/08 16:04:28;;;;;;;11.35;8.05;;;16.40;99.90;;;;;;4961860;28;20034;-93
2022/11/08 16:06:56;;;;;;;13.35;8.13;;;16.30;99.90;;;;;;4961564;28;20511;-92
2022/11/08 16:09:22;;;;;;;15.18;8.48;;;16.30;99.90;;;;;;4961130;28;20042;-93
2022/11/08 16:11:49;;;;;;;10.18;7.60;;;16.30;99.90;;;;;;4945159;28;20031;-93
2022/11/08 16:14:22;;;;;;;9.90;8.13;;;16.20;99.90;;;;;;4961152;28;20035;-92
2022/11/08 16:16:49;;;;;;;16.10;7.78;;;16.20;99.90;;;;;;4961351;28;20031;-92
2022/11/08 16:19:28;;;;;;;9.18;7.45;;;16.10;99.90;;;;;;4965754;28;20030;-93
2022/11/08 16:22:06;;;;;;;10.20;8.00;;;16.10;99.90;;;;;;4924413;29;20213;-93
2022/11/08 16:24:34;;;;;;;11.43;8.10;;;16.10;99.90;;;;;;4965649;29;20028;-93
2022/11/08 16:27:01;;;;;;;11.27;8.20;;;16.00;99.90;;;;;;4947959;29;20043;-92
2022/11/08 16:29:33;;;;;;;13.55;7.80;;;16.00;99.90;;;;;;4948787;29;20031;-94
2022/11/08 16:32:02;;;;;;;11.98;7.15;;;16.00;99.90;;;;;;4947338;29;20445;-93
2022/11/08 16:34:30;;;;;;;12.27;7.60;;;16.00;99.90;;;;;;4932829;29;20024;-92
2022/11/08 16:37:01;;;;;;;15.13;8.77;;;15.90;99.90;;;;;;4954199;29;20028;-94
2022/11/08 16:39:28;;;;;;;9.80;7.47;;;15.90;99.90;;;;;;4960756;29;20036;-93
2022/11/08 16:41:55;;;;;;;12.65;7.93;;;15.90;99.90;;;;;;4931953;29;20044;-95
2022/11/08 16:44:22;;;;;;;14.68;8.45;;;15.80;99.90;;;;;;4940608;29;20514;-93
2022/11/08 16:46:52;;;;;;;13.18;8.48;;;15.80;99.90;;;;;;4924658;29;20039;-93
2022/11/08 16:49:22;;;;;;;9.65;7.72;;;15.80;99.90;;;;;;4921151;29;20040;-94
2022/11/08 16:51:54;;;;;;;12.95;8.52;;;15.80;99.90;;;;;;4920429;29;20044;-93
2022/11/08 16:54:27;;;;;;;15.15;8.55;;;15.80;99.90;;;;;;4890397;29;20043;-93
2022/11/08 16:56:57;;;;;;;16.33;9.93;;;15.80;99.90;;;;;;4924880;29;20048;-94
2022/11/08 16:59:26;;;;;;;14.38;9.52;;;15.80;99.90;;;;;;4923416;29;20044;-93
2022/11/08 17:01:55;;;;;;;16.15;10.48;;;15.70;99.90;;;;;;4923645;29;20036;-94
2022/11/08 17:04:22;;;;;;;13.68;10.02;;;15.70;99.90;;;;;;4920963;29;20044;-93
2022/11/08 17:06:48;;;;;;;12.75;9.55;;;15.60;99.90;;;;;;4922004;29;20064;-92
2022/11/08 17:09:20;;;;;;;13.60;8.93;;;15.60;99.90;;;;;;4922352;29;20032;-93
2022/11/08 17:11:47;;;;;;;11.15;8.80;;;15.50;99.90;;;;;;4903535;29;20132;-93
2022/11/08 17:14:17;;;;;;;15.68;10.75;;;15.50;99.90;;;;;;4903237;29;20020;-92
2022/11/08 17:16:43;;;;;;;21.45;15.73;;;15.50;99.90;;;;;;4904430;29;20036;-92
2022/11/08 17:19:10;;;;;;;18.60;12.57;;;15.40;99.90;;;;;;4903094;29;20020;-93
2022/11/08 17:21:36;;;;;;;20.38;13.23;;;15.40;99.90;;;;;;4906775;29;20035;-93
2022/11/08 17:24:03;;;;;;;26.08;15.68;;;15.40;99.90;;;;;;4922095;29;20075;-93
2022/11/08 17:26:30;;;;;;;20.42;12.80;;;15.30;99.90;;;;;;4957947;28;20036;-93
2022/11/08 17:28:59;;;;;;;14.60;11.38;;;15.40;99.90;;;;;;4958131;28;20023;-91
2022/11/08 17:31:26;;;;;;;18.17;11.70;;;15.20;99.90;;;;;;4926257;29;20047;-91
2022/11/08 17:33:55;;;;;;;16.23;11.70;;;15.20;99.90;;;;;;4942729;29;20034;-93
2022/11/08 17:36:21;;;;;;;20.88;12.00;;;15.10;99.90;;;;;;4942085;29;20031;-94
2022/11/08 17:38:59;;;;;;;16.33;11.15;;;15.10;99.90;;;;;;4956141;28;20050;-93
2022/11/08 17:41:29;;;;;;;18.90;11.73;;;15.00;99.90;;;;;;4952807;28;20460;-93
2022/11/08 17:43:59;;;;;;;19.27;11.68;;;15.00;99.90;;;;;;4949866;28;20145;-93
2022/11/08 17:46:53;;;;;;;16.92;11.50;;;14.90;99.90;;;;;;4954449;28;20031;-94
2022/11/08 17:49:21;;;;;;;17.85;12.32;;;14.90;99.90;;;;;;4912194;28;20121;-94
2022/11/08 17:51:49;;;;;;;19.25;11.52;;;14.80;99.90;;;;;;4948242;28;20050;-93
2022/11/08 17:54:19;;;;;;;18.20;10.77;;;14.70;99.90;;;;;;4946984;28;20031;-92
2022/11/08 17:56:46;;;;;;;21.45;12.00;;;14.80;99.90;;;;;;4947453;28;20039;-93
2022/11/08 17:59:13;;;;;;;19.55;12.50;;;14.70;99.90;;;;;;4941198;29;20039;-93
2022/11/08 18:01:41;;;;;;;28.10;13.00;;;14.70;99.90;;;;;;4943306;29;20044;-93
2022/11/08 18:04:12;;;;;;;21.02;12.27;;;14.60;99.90;;;;;;4941486;28;20114;-93
2022/11/08 18:06:38;;;;;;;23.92;13.55;;;14.60;99.90;;;;;;4958537;28;20023;-93
2022/11/08 18:09:07;;;;;;;19.45;13.02;;;14.60;99.90;;;;;;4961820;29;20028;-92
2022/11/08 18:11:35;;;;;;;24.48;13.48;;;14.50;99.90;;;;;;4943258;29;20051;-93
2022/11/08 18:14:02;;;;;;;25.08;14.63;;;14.50;99.90;;;;;;4925800;29;20023;-93
2022/11/08 18:16:29;;;;;;;19.40;13.85;;;14.40;99.90;;;;;;4942164;29;20134;-93
2022/11/08 18:18:58;;;;;;;25.77;15.20;;;14.40;99.90;;;;;;4941558;29;20027;-93
2022/11/08 18:21:25;;;;;;;23.73;14.77;;;14.40;99.90;;;;;;4924809;29;20126;-93
2022/11/08 18:23:52;;;;;;;28.08;16.35;;;14.40;99.90;;;;;;4942584;29;20516;-92
2022/11/08 18:26:19;;;;;;;29.42;15.90;;;14.30;99.90;;;;;;4941590;29;20066;-93
2022/11/08 18:28:48;;;;;;;26.40;16.27;;;14.30;99.90;;;;;;4921907;29;20028;-93
2022/11/08 18:31:19;;;;;;;27.98;15.80;;;14.30;99.90;;;;;;4906238;29;20055;-93
2022/11/08 18:33:48;;;;;;;31.02;19.02;;;14.30;99.90;;;;;;4907888;29;20039;-93
2022/11/08 18:36:19;;;;;;;31.92;19.05;;;14.20;99.90;;;;;;4907538;29;20040;-94
2022/11/08 18:38:48;;;;;;;36.60;17.25;;;14.20;99.90;;;;;;4885185;29;20119;-93
2022/11/08 18:41:32;;;;;;;26.33;16.25;;;14.20;99.90;;;;;;4886008;29;20048;-92
2022/11/08 18:44:01;;;;;;;34.05;17.77;;;14.10;99.90;;;;;;4884672;29;20040;-93
2022/11/08 18:46:36;;;;;;;25.75;14.85;;;14.10;99.90;;;;;;4871529;29;20068;-94
2022/11/08 18:49:06;;;;;;;28.83;17.38;;;14.00;99.90;;;;;;4871032;29;20033;-94
2022/11/08 18:51:34;;;;;;;25.17;14.75;;;13.90;99.90;;;;;;4869813;29;20065;-92
2022/11/08 18:54:00;;;;;;;32.15;17.35;;;13.90;99.90;;;;;;4865983;29;20044;-93
2022/11/08 18:56:28;;;;;;;40.88;19.13;;;13.80;99.90;;;;;;4861594;29;20496;-94
2022/11/08 18:58:56;;;;;;;30.02;18.30;;;13.80;99.90;;;;;;4857118;29;20082;-93
2022/11/08 19:01:25;;;;;;;30.65;17.63;;;13.70;99.90;;;;;;4864289;29;20463;-93
2022/11/08 19:03:51;;;;;;;35.47;22.23;;;13.70;99.90;;;;;;4870793;29;20033;-95
2022/11/08 19:06:20;;;;;;;38.75;21.23;;;13.70;99.90;;;;;;4879971;29;20045;-94
2022/11/08 19:08:48;;;;;;;36.55;21.52;;;13.70;99.90;;;;;;4889339;29;20064;-94
2022/11/08 19:11:19;;;;;;;41.65;22.90;;;13.70;99.90;;;;;;4867424;29;20064;-94
2022/11/08 19:13:46;;;;;;;51.72;30.52;;;13.70;99.90;;;;;;4867673;29;20124;-93
2022/11/08 19:16:19;;;;;;;47.53;28.25;;;13.80;99.90;;;;;;4906393;29;20040;-92
